Chaffee Village, Texas
Current Conditions -  °F | °C
As of 1:56 PM on Wednesday 26 Nov 2014 (Local Time) from KHLR Reporting Station
Clear Clear  
Wind Chill: 72°   Ceiling: Unl
Heat Index: 72°   Visibility: 10mi
Dew Point: 27°   Wind: 8mph
Humidity: 19%   Direction: 330°NNW
Pressure: 30.17"   Gusts: NA
Location:  31.2151°N, 97.7405°W
Report Text: KHLR 261956Z AUTO 33007KT 10SM CLR 22/M03 A3017 RMK AO2 SLP245 T02221028 $
Loading
Personal Weather Stations






























Interactive Weather Map New forecast layout! Learn more

10-Day Weather Forecast

Advertisements
Track Severe Weather on mobile